Time;durP1;ratioP1;P1;durP2;ratioP2;P2;SDS_P1;SDS_P2;PMS_P1;PMS_P2;Temp;Humidity;BMP_temperature;BMP_pressure;BME280_temperature;BME280_humidity;BME280_pressure;Samples;Min_cycle;Max_cycle;Signal;HPM_P1;HPM_P2
2024/04/02 04:59:47;;;;;;;41.60;9.80;;;;;;;10.41;100.00;99194.96;113005;1247;23515;-58
2024/04/02 05:02:14;;;;;;;34.50;8.30;;;;;;;10.48;100.00;99196.59;113115;1244;22437;-57
2024/04/02 05:04:41;;;;;;;34.70;9.00;;;;;;;10.57;100.00;99192.24;113119;1244;23618;-57
2024/04/02 05:07:23;;;;;;;33.40;8.90;;;;;;;10.68;100.00;99187.69;112663;1247;22422;-48
2024/04/02 05:09:50;;;;;;;28.70;9.90;;;;;;;10.80;100.00;99183.98;112600;1247;25241;-49
2024/04/02 05:12:18;;;;;;;32.00;9.70;;;;;;;10.88;100.00;99180.35;113060;1237;22353;-49
2024/04/02 05:14:44;;;;;;;39.70;9.80;;;;;;;10.96;100.00;99180.91;112809;1237;22426;-49
2024/04/02 05:17:12;;;;;;;35.80;9.70;;;;;;;11.02;100.00;99177.83;113035;1247;22378;-57
2024/04/02 05:19:39;;;;;;;28.40;8.20;;;;;;;11.06;100.00;99171.80;112695;1246;22400;-48
2024/04/02 05:22:10;;;;;;;32.50;8.60;;;;;;;11.11;100.00;99165.24;112728;1247;22574;-48
2024/04/02 05:24:38;;;;;;;37.10;10.40;;;;;;;11.16;100.00;99156.59;112994;1246;22390;-47
2024/04/02 05:27:11;;;;;;;30.00;9.40;;;;;;;11.23;100.00;99148.08;112562;1246;22557;-48
2024/04/02 05:29:41;;;;;;;37.30;9.50;;;;;;;11.31;100.00;99139.70;112247;1246;22479;-57
2024/04/02 05:32:35;;;;;;;38.40;8.90;;;;;;;11.40;100.00;99136.02;112005;1246;22333;-51
2024/04/02 05:35:25;;;;;;;37.60;9.30;;;;;;;11.49;100.00;99132.52;111681;1246;22433;-47
2024/04/02 05:38:55;;;;;;;34.50;9.90;;;;;;;11.56;100.00;99129.39;112347;1238;22913;-57
2024/04/02 05:42:24;;;;;;;33.50;8.90;;;;;;;11.62;100.00;99124.17;111994;1246;25093;-47
2024/04/02 05:45:16;;;;;;;40.40;8.50;;;;;;;11.68;100.00;99116.70;112724;1244;22859;-46
2024/04/02 05:47:55;;;;;;;43.90;10.80;;;;;;;11.74;100.00;99112.88;112715;1246;22212;-56
2024/04/02 05:50:28;;;;;;;37.40;10.50;;;;;;;11.80;100.00;99113.45;112883;1240;22352;-49
2024/04/02 05:53:14;;;;;;;49.50;11.60;;;;;;;11.86;100.00;99111.77;112702;1244;22854;-57
2024/04/02 05:55:47;;;;;;;44.50;9.30;;;;;;;11.96;100.00;99112.21;111902;1246;22892;-57
2024/04/02 05:58:16;;;;;;;27.50;8.40;;;;;;;12.08;100.00;99113.52;112450;1246;22496;-48
2024/04/02 06:01:26;;;;;;;27.90;9.90;;;;;;;12.21;100.00;99110.72;111786;1246;22525;-56
2024/04/02 06:04:04;;;;;;;40.00;11.00;;;;;;;12.32;100.00;99115.35;111942;1246;23302;-48
2024/04/02 06:06:47;;;;;;;43.00;10.10;;;;;;;12.37;100.00;99119.59;111462;1247;23539;-46
2024/04/02 06:09:25;;;;;;;44.20;10.80;;;;;;;12.43;100.00;99117.66;111980;1246;22549;-48
2024/04/02 06:11:58;;;;;;;33.00;10.10;;;;;;;12.49;100.00;99108.42;112900;1247;23500;-58
2024/04/02 06:14:35;;;;;;;39.00;9.20;;;;;;;12.58;100.00;99102.61;111667;1246;23085;-50
2024/04/02 06:17:51;;;;;;;32.50;9.20;;;;;;;12.66;100.00;99098.86;112099;1247;23011;-48
2024/04/02 06:25:30;;;;;;;32.20;8.80;;;;;;;12.94;100.00;99092.50;112647;1243;23175;-58
2024/04/02 06:29:09;;;;;;;30.00;7.80;;;;;;;13.02;100.00;99083.85;112767;1246;22829;-57
2024/04/02 06:31:48;;;;;;;35.60;7.90;;;;;;;13.10;100.00;99086.96;112482;1247;22313;-47
2024/04/02 06:34:15;;;;;;;47.00;11.20;;;;;;;13.13;100.00;99079.00;112709;1246;23020;-57
2024/04/02 06:36:42;;;;;;;42.20;9.10;;;;;;;13.21;100.00;99068.77;112806;1244;23126;-58
2024/04/02 06:39:10;;;;;;;33.80;8.80;;;;;;;13.31;100.00;99074.11;112880;1246;23259;-47
2024/04/02 06:41:36;;;;;;;41.90;9.30;;;;;;;13.40;100.00;99073.64;112873;1247;22989;-57
2024/04/02 06:44:22;;;;;;;33.50;7.20;;;;;;;13.51;100.00;99076.30;112864;1246;23594;-50
2024/04/02 06:46:49;;;;;;;38.60;7.40;;;;;;;13.63;100.00;99072.23;112893;1247;22393;-48
2024/04/02 06:49:17;;;;;;;27.10;7.60;;;;;;;13.74;100.00;99070.30;112949;1245;22376;-48
2024/04/02 06:51:43;;;;;;;34.00;8.30;;;;;;;13.84;100.00;99065.25;112858;1246;23171;-58
2024/04/02 06:54:10;;;;;;;35.80;9.10;;;;;;;13.97;100.00;99061.31;112858;1244;22285;-48
2024/04/02 06:56:39;;;;;;;30.00;7.80;;;;;;;14.09;100.00;99057.41;112756;1246;22672;-48
2024/04/02 06:59:11;;;;;;;47.70;9.90;;;;;;;14.21;100.00;99049.98;112984;1246;22387;-48
2024/04/02 07:01:44;;;;;;;37.40;8.90;;;;;;;14.37;100.00;99040.31;112711;1246;22440;-48
2024/04/02 07:04:18;;;;;;;40.10;8.80;;;;;;;14.56;100.00;99032.65;112066;1246;23100;-57
2024/04/02 07:06:45;;;;;;;26.40;8.00;;;;;;;14.75;100.00;99024.20;112802;1246;23286;-58
2024/04/02 07:09:12;;;;;;;29.70;8.40;;;;;;;14.91;100.00;99010.99;112614;1246;23007;-48
2024/04/02 07:12:06;;;;;;;37.50;10.30;;;;;;;15.02;100.00;99008.64;112531;1246;22550;-49
2024/04/02 07:15:37;;;;;;;49.70;9.70;;;;;;;15.14;99.73;98993.76;112363;1246;22586;-58
2024/04/02 07:18:55;;;;;;;39.60;8.00;;;;;;;15.31;97.38;98972.00;112079;1246;23518;-57
2024/04/02 07:21:29;;;;;;;38.80;7.30;;;;;;;15.43;96.94;98963.63;112274;1246;22674;-49
2024/04/02 07:24:17;;;;;;;35.00;7.30;;;;;;;15.55;96.56;98968.77;111426;1246;22497;-49
2024/04/02 07:27:09;;;;;;;29.20;6.30;;;;;;;15.64;95.09;98968.24;112333;1246;23428;-47
2024/04/02 07:29:36;;;;;;;34.90;7.30;;;;;;;15.74;95.12;98962.04;112280;1246;22497;-55
2024/04/02 07:32:21;;;;;;;27.20;5.70;;;;;;;15.83;93.86;98957.07;112137;1247;22547;-48
2024/04/02 07:34:59;;;;;;;30.10;6.90;;;;;;;15.95;93.76;98957.98;112274;1247;22372;-48
2024/04/02 07:37:35;;;;;;;31.90;8.10;;;;;;;16.11;92.38;98945.14;112169;1246;22417;-58
2024/04/02 07:40:03;;;;;;;32.30;8.50;;;;;;;16.21;91.32;98933.94;112748;1246;24058;-57
2024/04/02 07:42:31;;;;;;;39.90;6.90;;;;;;;16.32;91.33;98938.38;112732;1246;22534;-51
2024/04/02 07:44:59;;;;;;;33.00;6.70;;;;;;;16.46;91.97;98945.14;112226;1246;22975;-56
2024/04/02 07:47:26;;;;;;;43.00;8.90;;;;;;;16.62;91.01;98948.81;112177;1246;23641;-57
2024/04/02 07:49:53;;;;;;;24.60;6.40;;;;;;;16.77;89.82;98954.52;112889;1246;22402;-51
2024/04/02 07:52:26;;;;;;;43.80;7.80;;;;;;;16.92;87.47;98945.70;112572;1246;22412;-52
2024/04/02 07:54:57;;;;;;;31.00;7.10;;;;;;;17.03;86.49;98945.86;111379;1246;22531;-47
2024/04/02 07:57:29;;;;;;;44.90;7.90;;;;;;;17.18;86.14;98940.24;112319;1247;22426;-58
2024/04/02 08:00:03;;;;;;;40.30;7.60;;;;;;;17.36;85.57;98941.45;112034;1247;22940;-61
2024/04/02 08:02:34;;;;;;;30.50;7.10;;;;;;;17.55;84.00;98936.11;111727;1248;22578;-59
2024/04/02 08:05:06;;;;;;;28.90;6.50;;;;;;;17.71;82.76;98933.39;111963;1247;23763;-51
2024/04/02 08:07:40;;;;;;;38.70;8.90;;;;;;;17.86;81.81;98933.70;112353;1247;22521;-50
2024/04/02 08:10:54;;;;;;;24.00;7.40;;;;;;;18.01;80.87;98922.52;112681;1247;23177;-51
2024/04/02 08:13:35;;;;;;;33.10;6.70;;;;;;;18.18;80.72;98914.23;112435;1247;22913;-58
2024/04/02 08:16:33;;;;;;;34.70;7.10;;;;;;;18.35;80.18;98902.38;112382;1247;23090;-58
2024/04/02 08:19:21;;;;;;;23.60;6.70;;;;;;;18.49;79.11;98891.22;112350;1247;22467;-56
2024/04/02 08:22:19;;;;;;;44.00;8.50;;;;;;;18.56;78.45;98886.23;112774;1241;22222;-61
2024/04/02 08:24:48;;;;;;;35.60;7.20;;;;;;;18.63;78.28;98881.78;112829;1247;22647;-50
2024/04/02 08:27:40;;;;;;;26.40;6.70;;;;;;;18.72;77.78;98883.95;112294;1247;23014;-52
2024/04/02 08:30:15;;;;;;;37.70;7.80;;;;;;;18.83;76.92;98881.40;112171;1247;22469;-50
2024/04/02 08:32:42;;;;;;;35.20;7.10;;;;;;;18.93;76.92;98882.61;112685;1247;22282;-51
2024/04/02 08:35:23;;;;;;;32.50;7.50;;;;;;;19.06;77.27;98881.15;112582;1248;22605;-52
2024/04/02 08:38:02;;;;;;;29.40;6.60;;;;;;;19.22;75.97;98879.69;112163;1247;23435;-51
2024/04/02 08:40:31;;;;;;;33.90;7.40;;;;;;;19.35;75.55;98878.92;112310;1247;22946;-57
2024/04/02 08:43:04;;;;;;;37.40;6.20;;;;;;;19.50;74.79;98873.10;112960;1247;22388;-57
2024/04/02 08:45:32;;;;;;;37.70;7.80;;;;;;;19.67;73.99;98867.93;112187;1248;22435;-59
2024/04/02 08:47:59;;;;;;;32.60;6.60;;;;;;;19.80;73.37;98870.27;113038;1247;23038;-60
2024/04/02 08:50:25;;;;;;;31.80;6.70;;;;;;;19.95;73.37;98862.69;112529;1247;22576;-59
2024/04/02 08:52:52;;;;;;;38.70;7.40;;;;;;;20.09;72.48;98868.32;113039;1247;23196;-61
2024/04/02 08:55:19;;;;;;;40.60;6.90;;;;;;;20.21;71.16;98864.59;112609;1247;22508;-54
2024/04/02 08:57:48;;;;;;;32.70;7.20;;;;;;;20.27;69.92;98859.11;112981;1247;22457;-50
2024/04/02 09:00:16;;;;;;;32.00;7.10;;;;;;;20.31;69.37;98852.68;112612;1247;23293;-57
2024/04/02 09:02:45;;;;;;;27.40;8.00;;;;;;;20.37;69.36;98851.23;112710;1248;22561;-48
2024/04/02 09:05:13;;;;;;;35.10;8.70;;;;;;;20.45;68.83;98852.35;112572;1247;22548;-56
2024/04/02 09:23:52;;;;;;;32.70;7.30;;;;;;;21.04;67.39;98813.06;112658;1247;22259;-45
2024/04/02 09:36:03;;;;;;;32.60;6.70;;;;;;;21.58;64.73;98779.14;112062;1247;22609;-55
2024/04/02 09:39:25;;;;;;;38.30;5.80;;;;;;;21.72;64.46;98767.66;112177;1247;22516;-47
2024/04/02 09:41:52;;;;;;;44.70;6.80;;;;;;;21.81;62.85;98762.98;112416;1248;22523;-46
2024/04/02 09:44:32;;;;;;;34.30;7.10;;;;;;;21.86;59.58;98750.04;111639;1248;23040;-45
2024/04/02 09:47:18;;;;;;;31.10;6.90;;;;;;;21.93;59.38;98739.02;111956;1248;22491;-53
2024/04/02 09:49:52;;;;;;;22.10;5.00;;;;;;;22.01;58.16;98727.84;111619;1248;22490;-55
2024/04/02 09:52:21;;;;;;;26.60;5.50;;;;;;;22.07;57.94;98737.71;112077;1247;22600;-48
2024/04/02 09:55:03;;;;;;;50.10;7.10;;;;;;;22.21;57.56;98725.36;112054;1247;22159;-57
2024/04/02 09:57:32;;;;;;;33.20;7.50;;;;;;;22.34;56.05;98719.61;112280;1247;22956;-55
2024/04/02 09:59:59;;;;;;;28.90;6.20;;;;;;;22.43;56.16;98709.91;112528;1248;24174;-46
2024/04/02 10:02:39;;;;;;;34.00;7.50;;;;;;;22.48;55.41;98715.95;112236;1247;23864;-54
2024/04/02 10:05:22;;;;;;;35.40;6.80;;;;;;;22.48;55.14;98705.81;112112;1248;23097;-45
2024/04/02 10:07:51;;;;;;;30.60;6.20;;;;;;;22.50;55.07;98703.71;112797;1248;22465;-55
2024/04/02 10:11:06;;;;;;;37.30;6.50;;;;;;;22.54;55.71;98694.35;111930;1241;22516;-46
2024/04/02 10:14:20;;;;;;;29.00;6.70;;;;;;;22.64;53.29;98681.51;112502;1248;22428;-46
2024/04/02 10:17:26;;;;;;;29.30;6.40;;;;;;;22.74;51.81;98665.84;112223;1248;22933;-56
2024/04/02 10:20:06;;;;;;;31.70;6.50;;;;;;;22.80;51.48;98667.34;112729;1245;22441;-46
2024/04/02 10:22:39;;;;;;;46.60;7.20;;;;;;;22.91;50.41;98664.89;112484;1247;22499;-46
2024/04/02 10:25:12;;;;;;;40.00;8.00;;;;;;;23.08;49.79;98658.32;112759;1248;23032;-55
2024/04/02 10:27:47;;;;;;;48.00;9.90;;;;;;;23.22;48.70;98655.23;112068;1240;23121;-44
2024/04/02 10:30:21;;;;;;;35.20;7.90;;;;;;;23.42;49.03;98649.93;112165;1248;22895;-45
2024/04/02 10:32:50;;;;;;;38.20;8.40;;;;;;;23.60;48.90;98649.39;112605;1247;22441;-49
2024/04/02 10:35:23;;;;;;;45.10;8.50;;;;;;;23.81;48.01;98651.88;112792;1248;22867;-58
2024/04/02 10:37:59;;;;;;;28.00;8.30;;;;;;;24.04;46.75;98648.41;112708;1248;23043;-56
2024/04/02 10:40:34;;;;;;;42.80;9.00;;;;;;;24.27;45.64;98638.81;112297;1247;22420;-56
2024/04/02 10:43:03;;;;;;;44.40;8.30;;;;;;;24.52;45.48;98634.08;112734;1248;22568;-60
2024/04/02 10:45:40;;;;;;;47.00;9.10;;;;;;;24.79;44.15;98628.59;112305;1248;22546;-49
2024/04/02 10:48:08;;;;;;;32.10;7.50;;;;;;;24.97;42.85;98607.85;112015;1248;23004;-58
2024/04/02 10:50:39;;;;;;;39.90;8.00;;;;;;;25.07;42.02;98611.08;111534;1248;22504;-49
2024/04/02 10:53:11;;;;;;;36.00;7.20;;;;;;;25.21;42.21;98595.83;112504;1247;22471;-49
2024/04/02 10:55:38;;;;;;;47.40;8.30;;;;;;;25.33;40.93;98581.35;112578;1248;23292;-46
2024/04/02 10:58:05;;;;;;;34.20;7.40;;;;;;;25.42;40.63;98582.20;112451;1247;22636;-45
2024/04/02 11:00:32;;;;;;;38.80;7.70;;;;;;;25.59;41.23;98581.19;112789;1248;22434;-56
2024/04/02 11:03:02;;;;;;;30.20;8.60;;;;;;;25.86;40.35;98579.36;111764;1247;22518;-47
2024/04/02 11:06:37;;;;;;;32.60;8.90;;;;;;;26.11;39.06;98580.33;112359;1248;22147;-48
2024/04/02 11:09:14;;;;;;;49.20;10.40;;;;;;;26.43;38.13;98568.03;111981;1247;24195;-46
2024/04/02 11:12:04;;;;;;;51.80;10.50;;;;;;;26.58;36.38;98556.35;112748;1247;22251;-47
2024/04/02 11:14:33;;;;;;;43.00;10.20;;;;;;;26.60;36.15;98574.79;112382;1248;22259;-46
2024/04/02 11:17:19;;;;;;;37.70;9.10;;;;;;;26.65;36.23;98567.33;112616;1248;22402;-54
2024/04/02 11:19:47;;;;;;;48.80;10.50;;;;;;;26.68;35.31;98564.39;112110;1247;22809;-58
2024/04/02 11:25:08;;;;;;;47.70;8.50;;;;;;;26.68;33.58;98568.80;112535;1248;22371;-46
2024/04/02 11:28:04;;;;;;;48.30;8.20;;;;;;;26.64;32.99;98553.06;112072;1247;23417;-47
2024/04/02 11:30:31;;;;;;;47.00;8.70;;;;;;;26.63;33.65;98563.80;112404;1247;22247;-46
2024/04/02 11:32:59;;;;;;;29.90;6.60;;;;;;;26.66;34.26;98565.63;112423;1248;22956;-49
2024/04/02 11:35:31;;;;;;;39.90;8.20;;;;;;;26.72;33.90;98568.59;112589;1247;22530;-55
2024/04/02 11:38:01;;;;;;;37.40;7.50;;;;;;;26.64;33.66;98562.22;111603;1247;22267;-45
2024/04/02 11:40:28;;;;;;;29.40;7.60;;;;;;;26.45;33.55;98566.60;112852;1247;22369;-46
2024/04/02 11:42:56;;;;;;;28.90;6.60;;;;;;;26.32;33.97;98560.71;112858;1247;23467;-46
2024/04/02 11:45:23;;;;;;;27.40;5.90;;;;;;;26.22;33.54;98572.17;112792;1247;22449;-46
2024/04/02 11:47:52;;;;;;;40.40;6.10;;;;;;;26.14;32.86;98550.23;112744;1247;22516;-55
2024/04/02 11:50:20;;;;;;;38.20;6.30;;;;;;;26.09;33.67;98544.94;112365;1247;22912;-46
2024/04/02 11:52:51;;;;;;;40.20;7.10;;;;;;;26.12;33.16;98539.70;112215;1247;23145;-55
2024/04/02 11:55:18;;;;;;;38.00;5.40;;;;;;;26.10;33.39;98533.96;112637;1247;22428;-56
2024/04/02 12:00:32;;;;;;;47.60;6.80;;;;;;;26.26;32.63;98542.45;112704;1247;22374;-55
2024/04/02 12:03:00;;;;;;;37.90;5.80;;;;;;;26.20;32.53;98526.41;112551;1247;22398;-45
2024/04/02 12:05:28;;;;;;;28.00;5.40;;;;;;;26.13;32.95;98520.60;112826;1248;22412;-45
2024/04/02 12:07:55;;;;;;;26.20;5.10;;;;;;;26.14;32.92;98509.77;112793;1247;22387;-45
2024/04/02 12:10:22;;;;;;;22.40;5.40;;;;;;;26.22;32.89;98504.94;112861;1247;23096;-55
2024/04/02 12:12:51;;;;;;;29.80;6.50;;;;;;;26.31;31.11;98485.92;112912;1247;22462;-46
2024/04/02 12:15:18;;;;;;;35.00;6.00;;;;;;;26.31;31.19;98490.96;112940;1247;23187;-55
2024/04/02 12:17:45;;;;;;;29.70;5.90;;;;;;;26.33;31.39;98479.98;112845;1247;23342;-45
2024/04/02 12:20:16;;;;;;;34.30;6.20;;;;;;;26.42;31.29;98444.13;112820;1247;23477;-45
2024/04/02 12:22:42;;;;;;;31.40;6.40;;;;;;;26.41;30.76;98451.74;112744;1247;22773;-46
2024/04/02 12:25:10;;;;;;;50.70;6.60;;;;;;;26.29;31.05;98435.39;112810;1247;22947;-55
2024/04/02 12:27:36;;;;;;;28.50;5.90;;;;;;;26.15;30.69;98427.58;112807;1247;22406;-56
2024/04/02 12:30:06;;;;;;;20.10;4.60;;;;;;;26.03;30.85;98433.48;112826;1248;22409;-46
2024/04/02 12:32:34;;;;;;;27.10;5.00;;;;;;;25.94;30.61;98435.38;112901;1247;22384;-46
2024/04/02 12:35:01;;;;;;;37.70;6.20;;;;;;;25.80;30.80;98417.03;112989;1247;22512;-55
2024/04/02 12:37:28;;;;;;;33.50;5.70;;;;;;;25.71;31.13;98416.64;113007;1247;22238;-46
2024/04/02 12:39:55;;;;;;;31.20;5.50;;;;;;;25.70;31.20;98422.62;113012;1247;23090;-55
2024/04/02 12:42:22;;;;;;;25.80;6.20;;;;;;;25.73;31.98;98420.20;113094;1241;22385;-46
2024/04/02 12:44:50;;;;;;;40.90;7.40;;;;;;;25.87;31.72;98410.82;112999;1248;23230;-46
2024/04/02 12:47:16;;;;;;;31.10;6.10;;;;;;;25.89;32.32;98408.34;112999;1247;22470;-47
2024/04/02 12:49:43;;;;;;;32.00;6.10;;;;;;;25.81;32.36;98406.08;112991;1247;23137;-46
2024/04/02 12:52:10;;;;;;;32.00;5.80;;;;;;;25.74;32.25;98400.98;113044;1248;22929;-46
2024/04/02 12:54:37;;;;;;;36.80;5.70;;;;;;;25.73;32.55;98410.56;113029;1248;22458;-54
2024/04/02 12:57:04;;;;;;;25.30;5.40;;;;;;;25.80;32.02;98410.84;113027;1247;22213;-54
2024/04/02 12:59:31;;;;;;;39.30;6.40;;;;;;;25.77;31.69;98400.23;113069;1247;22391;-54
2024/04/02 13:01:58;;;;;;;23.70;5.60;;;;;;;25.62;31.88;98365.14;112443;1247;22653;-55
2024/04/02 13:04:25;;;;;;;30.50;5.70;;;;;;;25.52;32.42;98357.73;112938;1247;22454;-55
2024/04/02 13:06:52;;;;;;;31.00;5.90;;;;;;;25.60;33.01;98366.21;112931;1247;22468;-46
2024/04/02 13:09:19;;;;;;;39.80;7.30;;;;;;;25.68;32.74;98359.52;112933;1240;23525;-46
2024/04/02 13:11:47;;;;;;;27.80;5.20;;;;;;;25.51;32.84;98362.58;112935;1247;23088;-45
2024/04/02 13:14:17;;;;;;;29.20;5.60;;;;;;;25.21;33.41;98377.42;112889;1247;23583;-56
2024/04/02 13:16:44;;;;;;;35.50;6.10;;;;;;;24.95;33.55;98363.36;113030;1247;22849;-48
2024/04/02 13:19:11;;;;;;;24.90;5.00;;;;;;;24.75;33.94;98343.94;113103;1248;23262;-56
2024/04/02 13:21:38;;;;;;;31.10;6.10;;;;;;;24.77;33.83;98345.91;113121;1247;22336;-55
2024/04/02 13:24:06;;;;;;;34.80;5.30;;;;;;;24.98;33.79;98365.21;112542;1247;23036;-55
